EmailTwitter


Surface observations / France / LFBD (07510)

Regions: Quebec | Canada | USA | Europe | France | UK | Elsewhere
Station
Display
Info & Location for LFBD (07510) | Help decoding METAR

Weather Conditions observed on 2019/01/17 at 21:30 UTC at BORDEAUX/MERIGNA, FR (LFBD)

Temperature: 3.0 Celsius.

Dewpoint: 2.0 Celsius.

Relative Humidity: 93%

Winds: Southwest at 6 km/h or 3 knots.

Mean Sea level Pressure: 102.00 kilopascals.

Coded METAR:

LFBD 172130Z AUTO 21003KT CAVOK 03/02 Q1020 TEMPO 4000 -SHRA BKN020TCU=